Time;durP1;ratioP1;P1;durP2;ratioP2;P2;SDS_P1;SDS_P2;PMS_P1;PMS_P2;Temp;Humidity;BMP_temperature;BMP_pressure;BME280_temperature;BME280_humidity;BME280_pressure;Samples;Min_cycle;Max_cycle;Signal;HPM_P1;HPM_P2
2022/09/23 00:00:19;;;;;;;;;;;;;;;;;;1033181;28;4464;-58
2022/09/23 00:01:10;;;;;;;;;;;;;;;;;;1031435;28;2067;-54
2022/09/23 00:01:40;;;;;;;;;;;;;;;;;;1031734;28;3849;-58
2022/09/23 00:02:11;;;;;;;;;;;;;;;;;;1031472;28;4081;-54
2022/09/23 00:02:41;;;;;;;;;;;;;;;;;;1033518;28;2806;-55
2022/09/23 00:03:12;;;;;;;;;;;;;;;;;;1033129;28;4215;-58
2022/09/23 00:03:44;;;;;;;;;;;;;;;;;;1034442;28;3253;-56
2022/09/23 00:04:14;;;;;;;;;;;;;;;;;;1032429;28;3938;-57
2022/09/23 00:04:45;;;;;;;;;;;;;;;;;;1034600;28;2999;-57
2022/09/23 00:05:15;;;;;;;;;;;;;;;;;;1033113;28;3905;-57
2022/09/23 00:05:56;;;;;;;;;;;;;;;;;;1033247;28;3266;-58
2022/09/23 00:06:27;;;;;;;;;;;;;;;;;;1033033;28;4391;-58
2022/09/23 00:06:57;;;;;;;;;;;;;;;;;;1034791;28;1699;-58
2022/09/23 00:07:27;;;;;;;;;;;;;;;;;;1032827;28;3903;-56
2022/09/23 00:07:58;;;;;;;;;;;;;;;;;;1033674;28;3150;-57
2022/09/23 00:08:29;;;;;;;;;;;;;;;;;;1033795;28;4049;-58
2022/09/23 00:08:59;;;;;;;;;;;;;;;;;;1033605;28;2571;-58
2022/09/23 00:09:29;;;;;;;;;;;;;;;;;;1032960;28;4116;-55
2022/09/23 00:10:00;;;;;;;;;;;;;;;;;;1034546;28;2284;-57
2022/09/23 00:10:30;;;;;;;;;;;;;;;;;;1034014;28;3853;-56
2022/09/23 00:11:08;;;;;;;;;;;;;;;;;;1033524;28;3211;-57
2022/09/23 00:11:38;;;;;;;;;;;;;;;;;;1033636;28;3844;-57
2022/09/23 00:12:09;;;;;;;;;;;;;;;;;;1034118;28;1868;-58
2022/09/23 00:12:39;;;;;;;;;;;;;;;;;;1033953;28;3779;-57
2022/09/23 00:13:09;;;;;;;;;;;;;;;;;;1033369;28;2200;-57
2022/09/23 00:13:41;;;;;;;;;;;;;;;;;;1034003;28;3802;-57
2022/09/23 00:14:11;;;;;;;;;;;;;;;;;;1033304;28;4006;-57
2022/09/23 00:14:42;;;;;;;;;;;;;;;;;;1033766;28;1654;-57
2022/09/23 00:15:12;;;;;;;;;;;;;;;;;;1033751;28;4122;-55
2022/09/23 00:15:42;;;;;;;;;;;;;;;;;;1034267;28;1906;-53
2022/09/23 00:16:14;;;;;;;;;;;;;;;;;;1033397;28;3918;-57
2022/09/23 00:16:45;;;;;;;;;;;;;;;;;;1034504;28;1709;-58
2022/09/23 00:17:15;;;;;;;;;;;;;;;;;;1033423;28;4119;-56
2022/09/23 00:17:46;;;;;;;;;;;;;;;;;;1034111;28;2111;-55
2022/09/23 00:18:16;;;;;;;;;;;;;;;;;;1032730;28;4057;-58
2022/09/23 00:18:48;;;;;;;;;;;;;;;;;;1034437;28;1696;-55
2022/09/23 00:19:19;;;;;;;;;;;;;;;;;;1033132;28;4090;-55
2022/09/23 00:19:49;;;;;;;;;;;;;;;;;;1029662;28;3272;-57
2022/09/23 00:20:19;;;;;;;;;;;;;;;;;;1028832;28;4104;-56
2022/09/23 00:20:50;;;;;;;;;;;;;;;;;;1029712;28;2193;-58
2022/09/23 00:21:20;;;;;;;;;;;;;;;;;;1029748;28;3937;-58
2022/09/23 00:21:51;;;;;;;;;;;;;;;;;;1034022;28;2032;-58
2022/09/23 00:22:21;;;;;;;;;;;;;;;;;;1033681;28;4100;-54
2022/09/23 00:22:52;;;;;;;;;;;;;;;;;;1033658;28;3270;-57
2022/09/23 00:23:22;;;;;;;;;;;;;;;;;;1032478;28;4094;-56
2022/09/23 00:23:52;;;;;;;;;;;;;;;;;;1033846;28;3504;-58
2022/09/23 00:24:22;;;;;;;;;;;;;;;;;;1029674;28;4127;-58
2022/09/23 00:24:53;;;;;;;;;;;;;;;;;;1030329;28;2945;-58
2022/09/23 00:25:23;;;;;;;;;;;;;;;;;;1029835;28;4069;-56
2022/09/23 00:25:55;;;;;;;;;;;;;;;;;;1031242;28;3000;-54
2022/09/23 00:26:25;;;;;;;;;;;;;;;;;;1034152;28;3911;-57
2022/09/23 00:26:55;;;;;;;;;;;;;;;;;;1032494;28;3302;-56
2022/09/23 00:27:25;;;;;;;;;;;;;;;;;;1033474;28;3921;-57
2022/09/23 00:27:56;;;;;;;;;;;;;;;;;;1033216;28;3650;-55
2022/09/23 00:28:26;;;;;;;;;;;;;;;;;;1034065;28;3915;-57
2022/09/23 00:28:56;;;;;;;;;;;;;;;;;;1034447;28;1737;-56
2022/09/23 00:29:26;;;;;;;;;;;;;;;;;;1033387;28;4069;-54
2022/09/23 00:29:57;;;;;;;;;;;;;;;;;;1034245;28;1701;-57
2022/09/23 00:30:28;;;;;;;;;;;;;;;;;;1033592;28;4107;-57
2022/09/23 00:31:05;;;;;;;;;;;;;;;;;;1034217;28;1676;-57
2022/09/23 00:31:35;;;;;;;;;;;;;;;;;;1033231;28;3880;-56
2022/09/23 00:32:06;;;;;;;;;;;;;;;;;;1034147;28;1634;-56
2022/09/23 00:32:36;;;;;;;;;;;;;;;;;;1033133;28;4004;-57
2022/09/23 00:33:07;;;;;;;;;;;;;;;;;;1034542;28;3092;-56
2022/09/23 00:33:39;;;;;;;;;;;;;;;;;;1033573;28;4034;-56
2022/09/23 00:34:10;;;;;;;;;;;;;;;;;;1033741;28;1671;-58
2022/09/23 00:34:42;;;;;;;;;;;;;;;;;;1033572;28;4713;-58
2022/09/23 00:35:12;;;;;;;;;;;;;;;;;;1034177;28;4051;-53
2022/09/23 00:35:43;;;;;;;;;;;;;;;;;;1032608;28;3019;-57
2022/09/23 00:36:14;;;;;;;;;;;;;;;;;;1033864;28;4090;-57
2022/09/23 00:36:44;;;;;;;;;;;;;;;;;;1032438;28;3049;-58
2022/09/23 00:37:15;;;;;;;;;;;;;;;;;;1033735;28;4167;-57
2022/09/23 00:37:45;;;;;;;;;;;;;;;;;;1033361;28;3296;-57
2022/09/23 00:38:16;;;;;;;;;;;;;;;;;;1033431;28;3918;-56
2022/09/23 00:38:46;;;;;;;;;;;;;;;;;;1034195;28;2645;-58
2022/09/23 00:39:16;;;;;;;;;;;;;;;;;;1032481;28;3907;-58
2022/09/23 00:39:47;;;;;;;;;;;;;;;;;;1034591;28;1690;-55
2022/09/23 00:40:17;;;;;;;;;;;;;;;;;;1032923;28;4052;-55
2022/09/23 00:40:48;;;;;;;;;;;;;;;;;;1034229;28;2088;-58
2022/09/23 00:41:18;;;;;;;;;;;;;;;;;;1033684;28;4181;-56
2022/09/23 00:41:49;;;;;;;;;;;;;;;;;;1033558;28;1670;-56
2022/09/23 00:42:20;;;;;;;;;;;;;;;;;;1033695;28;4003;-58
2022/09/23 00:42:50;;;;;;;;;;;;;;;;;;1032468;28;2267;-57
2022/09/23 00:43:41;;;;;;;;;;;;;;;;;;1033625;28;4053;-56
2022/09/23 00:44:30;;;;;;;;;;;;;;;;;;1034214;28;4062;-57
2022/09/23 00:45:00;;;;;;;;;;;;;;;;;;1033300;28;1833;-57
2022/09/23 00:45:31;;;;;;;;;;;;;;;;;;1032955;28;4314;-58
2022/09/23 00:46:02;;;;;;;;;;;;;;;;;;1032878;28;1880;-56
2022/09/23 00:46:35;;;;;;;;;;;;;;;;;;1033982;28;3984;-57
2022/09/23 00:47:10;;;;;;;;;;;;;;;;;;1034015;28;1983;-58
2022/09/23 00:47:44;;;;;;;;;;;;;;;;;;1033394;28;3717;-55
2022/09/23 00:48:16;;;;;;;;;;;;;;;;;;1032903;28;3938;-57
2022/09/23 00:48:47;;;;;;;;;;;;;;;;;;1034311;28;3026;-57
2022/09/23 00:49:35;;;;;;;;;;;;;;;;;;1032380;28;4438;-58
2022/09/23 00:50:23;;;;;;;;;;;;;;;;;;1032764;28;3955;-58
2022/09/23 00:51:00;;;;;;;;;;;;;;;;;;1034249;28;3324;-58
2022/09/23 00:51:32;;;;;;;;;;;;;;;;;;1032876;28;4160;-55
2022/09/23 00:52:09;;;;;;;;;;;;;;;;;;1034827;28;3062;-57
2022/09/23 00:52:40;;;;;;;;;;;;;;;;;;1033016;28;4897;-56
2022/09/23 00:53:13;;;;;;;;;;;;;;;;;;1033938;28;3051;-58
2022/09/23 00:53:47;;;;;;;;;;;;;;;;;;1032265;28;4011;-58
2022/09/23 00:54:18;;;;;;;;;;;;;;;;;;1034057;28;4083;-57
2022/09/23 00:54:50;;;;;;;;;;;;;;;;;;1033219;28;3208;-58
2022/09/23 00:55:24;;;;;;;;;;;;;;;;;;1034129;28;4149;-58
2022/09/23 00:56:00;;;;;;;;;;;;;;;;;;1033672;28;2203;-58
2022/09/23 00:56:31;;;;;;;;;;;;;;;;;;1033160;28;4054;-58
2022/09/23 00:57:04;;;;;;;;;;;;;;;;;;1033313;28;2422;-56
2022/09/23 00:57:35;;;;;;;;;;;;;;;;;;1032400;28;3794;-57
2022/09/23 00:58:08;;;;;;;;;;;;;;;;;;1033214;28;1963;-58
2022/09/23 00:58:40;;;;;;;;;;;;;;;;;;1032907;28;3853;-57
2022/09/23 00:59:11;;;;;;;;;;;;;;;;;;1029139;28;4084;-58
2022/09/23 00:59:42;;;;;;;;;;;;;;;;;;1030298;28;3253;-56
2022/09/23 01:00:12;;;;;;;;;;;;;;;;;;1028617;28;4136;-54
2022/09/23 01:00:45;;;;;;;;;;;;;;;;;;1033483;28;3155;-56
2022/09/23 01:01:15;;;;;;;;;;;;;;;;;;1033503;28;3914;-56
2022/09/23 01:01:48;;;;;;;;;;;;;;;;;;1034386;28;2152;-58
2022/09/23 01:02:19;;;;;;;;;;;;;;;;;;1033513;28;4090;-57
2022/09/23 01:02:50;;;;;;;;;;;;;;;;;;1034430;28;3308;-56
2022/09/23 01:03:21;;;;;;;;;;;;;;;;;;1033883;28;4090;-58
2022/09/23 01:03:53;;;;;;;;;;;;;;;;;;1034433;28;2050;-56
2022/09/23 01:04:24;;;;;;;;;;;;;;;;;;1033742;28;4068;-56
2022/09/23 01:04:54;;;;;;;;;;;;;;;;;;1034243;28;3094;-57
2022/09/23 01:05:25;;;;;;;;;;;;;;;;;;1033805;28;4263;-57
2022/09/23 01:05:56;;;;;;;;;;;;;;;;;;1033633;28;3061;-55
2022/09/23 01:06:28;;;;;;;;;;;;;;;;;;1034237;28;4054;-57
2022/09/23 01:06:58;;;;;;;;;;;;;;;;;;1033136;28;3194;-55
2022/09/23 01:07:29;;;;;;;;;;;;;;;;;;1034413;28;4106;-56
2022/09/23 01:08:01;;;;;;;;;;;;;;;;;;1033719;28;1602;-57
2022/09/23 01:08:31;;;;;;;;;;;;;;;;;;1032875;28;4064;-57
2022/09/23 01:09:02;;;;;;;;;;;;;;;;;;1033408;28;2430;-58
2022/09/23 01:09:32;;;;;;;;;;;;;;;;;;1030970;28;3933;-57
2022/09/23 01:10:03;;;;;;;;;;;;;;;;;;1029448;28;3285;-57
2022/09/23 01:10:46;;;;;;;;;;;;;;;;;;1028329;28;4114;-58
2022/09/23 01:11:36;;;;;;;;;;;;;;;;;;1030812;28;3995;-56
2022/09/23 01:12:18;;;;;;;;;;;;;;;;;;1032703;28;4415;-57
2022/09/23 01:13:24;;;;;;;;;;;;;;;;;;1032127;28;3984;-56
2022/09/23 01:14:04;;;;;;;;;;;;;;;;;;1024197;28;3756;-56
2022/09/23 01:14:52;;;;;;;;;;;;;;;;;;1024042;28;3801;-56
2022/09/23 01:15:38;;;;;;;;;;;;;;;;;;1023764;28;4100;-56
2022/09/23 01:16:19;;;;;;;;;;;;;;;;;;1034450;28;1346;-57
2022/09/23 01:16:57;;;;;;;;;;;;;;;;;;1033966;28;3777;-57
2022/09/23 01:17:30;;;;;;;;;;;;;;;;;;1033177;28;4112;-58
2022/09/23 01:18:00;;;;;;;;;;;;;;;;;;1033994;28;3205;-58
2022/09/23 01:18:42;;;;;;;;;;;;;;;;;;1033019;28;3888;-55
2022/09/23 01:19:18;;;;;;;;;;;;;;;;;;1029856;28;4103;-58
2022/09/23 01:20:02;;;;;;;;;;;;;;;;;;1030280;28;1675;-57
2022/09/23 01:20:40;;;;;;;;;;;;;;;;;;1028816;28;4069;-57
2022/09/23 01:21:11;;;;;;;;;;;;;;;;;;1033186;28;4070;-55
2022/09/23 01:21:44;;;;;;;;;;;;;;;;;;1034265;28;1754;-57
2022/09/23 01:22:21;;;;;;;;;;;;;;;;;;1033367;28;3852;-54
2022/09/23 01:23:17;;;;;;;;;;;;;;;;;;1034009;28;1564;-57
2022/09/23 01:23:53;;;;;;;;;;;;;;;;;;1033746;28;3976;-58
2022/09/23 01:24:38;;;;;;;;;;;;;;;;;;1034149;28;3905;-55
2022/09/23 01:25:41;;;;;;;;;;;;;;;;;;1033995;28;1750;-58
2022/09/23 01:26:19;;;;;;;;;;;;;;;;;;1019348;29;4240;-55
2022/09/23 01:27:08;;;;;;;;;;;;;;;;;;1018616;29;2003;-57
2022/09/23 01:27:57;;;;;;;;;;;;;;;;;;1034122;28;3878;-57
2022/09/23 01:28:32;;;;;;;;;;;;;;;;;;1034519;28;3918;-55
2022/09/23 01:29:11;;;;;;;;;;;;;;;;;;1034013;28;3294;-57
2022/09/23 01:29:47;;;;;;;;;;;;;;;;;;1034085;28;3910;-58
2022/09/23 01:30:33;;;;;;;;;;;;;;;;;;1033229;28;4150;-56
2022/09/23 01:31:05;;;;;;;;;;;;;;;;;;1033809;28;3161;-57
2022/09/23 01:31:49;;;;;;;;;;;;;;;;;;1033863;28;3854;-57
2022/09/23 01:32:37;;;;;;;;;;;;;;;;;;1033631;28;4129;-57
2022/09/23 01:33:17;;;;;;;;;;;;;;;;;;1033711;28;2487;-56
2022/09/23 01:33:54;;;;;;;;;;;;;;;;;;1034262;28;3670;-57
2022/09/23 01:34:29;;;;;;;;;;;;;;;;;;1034000;28;4116;-57
2022/09/23 01:35:19;;;;;;;;;;;;;;;;;;1034792;28;1668;-57
2022/09/23 01:35:59;;;;;;;;;;;;;;;;;;1032690;28;4204;-54
2022/09/23 01:36:29;;;;;;;;;;;;;;;;;;1032193;28;4140;-53
2022/09/23 01:37:12;;;;;;;;;;;;;;;;;;1034326;28;1655;-58
2022/09/23 01:37:49;;;;;;;;;;;;;;;;;;1033514;28;3748;-56
2022/09/23 01:38:23;;;;;;;;;;;;;;;;;;1033281;28;3804;-57
2022/09/23 01:39:03;;;;;;;;;;;;;;;;;;1034546;28;1714;-57
2022/09/23 01:39:36;;;;;;;;;;;;;;;;;;1033070;28;4437;-58
2022/09/23 01:40:13;;;;;;;;;;;;;;;;;;1034480;28;1697;-55
2022/09/23 01:40:58;;;;;;;;;;;;;;;;;;1033391;28;3762;-58
2022/09/23 01:41:31;;;;;;;;;;;;;;;;;;1033098;28;4186;-57
2022/09/23 01:42:06;;;;;;;;;;;;;;;;;;1033678;28;1614;-57
2022/09/23 01:42:48;;;;;;;;;;;;;;;;;;1033492;28;4061;-54
2022/09/23 01:43:19;;;;;;;;;;;;;;;;;;1033418;28;3987;-55
2022/09/23 01:44:01;;;;;;;;;;;;;;;;;;1033918;28;3010;-57
2022/09/23 01:44:47;;;;;;;;;;;;;;;;;;1034088;28;3908;-58
2022/09/23 01:45:27;;;;;;;;;;;;;;;;;;1027260;28;3911;-57
2022/09/23 01:45:59;;;;;;;;;;;;;;;;;;1029437;28;2190;-55
2022/09/23 01:46:42;;;;;;;;;;;;;;;;;;1029213;28;4085;-58
2022/09/23 01:47:13;;;;;;;;;;;;;;;;;;1031505;28;4095;-56
2022/09/23 01:47:51;;;;;;;;;;;;;;;;;;1034077;28;1607;-57
2022/09/23 01:48:47;;;;;;;;;;;;;;;;;;1032935;28;4111;-57
2022/09/23 01:49:44;;;;;;;;;;;;;;;;;;1029218;28;4101;-57
2022/09/23 01:51:11;;;;;;;;;;;;;;;;;;1029015;28;2726;-56
2022/09/23 01:51:51;;;;;;;;;;;;;;;;;;1028199;28;3887;-56
2022/09/23 01:52:24;;;;;;;;;;;;;;;;;;1029107;28;4077;-58
2022/09/23 01:52:56;;;;;;;;;;;;;;;;;;1029871;28;2234;-58
2022/09/23 01:53:38;;;;;;;;;;;;;;;;;;1027618;28;4058;-57
2022/09/23 01:54:14;;;;;;;;;;;;;;;;;;1028924;28;1528;-57
2022/09/23 01:54:50;;;;;;;;;;;;;;;;;;1029456;28;3947;-56
2022/09/23 01:55:26;;;;;;;;;;;;;;;;;;1028470;28;3917;-57
2022/09/23 01:55:59;;;;;;;;;;;;;;;;;;1029670;28;2300;-55
2022/09/23 01:56:41;;;;;;;;;;;;;;;;;;1028816;28;4108;-57
2022/09/23 01:57:17;;;;;;;;;;;;;;;;;;1028178;28;3965;-57
2022/09/23 01:58:02;;;;;;;;;;;;;;;;;;1029361;28;2262;-56
2022/09/23 01:58:35;;;;;;;;;;;;;;;;;;1029184;28;4064;-56
2022/09/23 01:59:11;;;;;;;;;;;;;;;;;;1028911;28;2233;-57
2022/09/23 01:59:44;;;;;;;;;;;;;;;;;;1028916;28;3810;-57
2022/09/23 02:00:15;;;;;;;;;;;;;;;;;;1023440;28;3951;-57
2022/09/23 02:00:55;;;;;;;;;;;;;;;;;;1025123;28;2859;-57
2022/09/23 02:01:29;;;;;;;;;;;;;;;;;;1024203;28;3965;-57
2022/09/23 02:02:08;;;;;;;;;;;;;;;;;;1026421;28;1680;-58
2022/09/23 02:02:43;;;;;;;;;;;;;;;;;;1028908;28;4215;-56
2022/09/23 02:03:18;;;;;;;;;;;;;;;;;;1029057;28;3905;-58
2022/09/23 02:03:58;;;;;;;;;;;;;;;;;;1029368;28;1775;-57
2022/09/23 02:04:31;;;;;;;;;;;;;;;;;;1029718;28;3939;-55
2022/09/23 02:05:09;;;;;;;;;;;;;;;;;;1029979;28;1868;-57
2022/09/23 02:05:43;;;;;;;;;;;;;;;;;;1029423;28;3867;-57
2022/09/23 02:06:17;;;;;;;;;;;;;;;;;;1028340;28;4065;-56
2022/09/23 02:06:50;;;;;;;;;;;;;;;;;;1028780;28;3365;-59
2022/09/23 02:07:34;;;;;;;;;;;;;;;;;;1023802;28;3967;-55
2022/09/23 02:08:13;;;;;;;;;;;;;;;;;;1025077;28;1606;-56
2022/09/23 02:08:45;;;;;;;;;;;;;;;;;;1024784;28;4069;-56
2022/09/23 02:09:20;;;;;;;;;;;;;;;;;;1028316;28;4196;-56
2022/09/23 02:09:56;;;;;;;;;;;;;;;;;;1030309;28;3044;-57
2022/09/23 02:10:34;;;;;;;;;;;;;;;;;;1028174;28;4472;-58
2022/09/23 02:11:09;;;;;;;;;;;;;;;;;;1029606;28;3095;-57
2022/09/23 02:11:44;;;;;;;;;;;;;;;;;;1028461;28;4028;-58
2022/09/23 02:12:16;;;;;;;;;;;;;;;;;;1029032;28;3909;-56
2022/09/23 02:12:51;;;;;;;;;;;;;;;;;;1029419;28;1709;-56
2022/09/23 02:13:24;;;;;;;;;;;;;;;;;;1029331;28;4165;-56
2022/09/23 02:13:57;;;;;;;;;;;;;;;;;;1025327;28;2355;-57
2022/09/23 02:14:30;;;;;;;;;;;;;;;;;;1025249;28;4094;-56
2022/09/23 02:15:02;;;;;;;;;;;;;;;;;;1025347;28;1674;-59
2022/09/23 02:15:35;;;;;;;;;;;;;;;;;;1025311;28;4071;-57
2022/09/23 02:16:09;;;;;;;;;;;;;;;;;;1029280;28;2337;-59
2022/09/23 02:16:46;;;;;;;;;;;;;;;;;;1028854;28;4017;-58
2022/09/23 02:17:22;;;;;;;;;;;;;;;;;;1028679;28;3918;-56
2022/09/23 02:17:54;;;;;;;;;;;;;;;;;;1029713;28;1836;-56
2022/09/23 02:18:27;;;;;;;;;;;;;;;;;;1029407;28;3918;-56
2022/09/23 02:19:12;;;;;;;;;;;;;;;;;;1028191;28;3294;-57
2022/09/23 02:19:46;;;;;;;;;;;;;;;;;;1028720;28;4027;-55
2022/09/23 02:20:19;;;;;;;;;;;;;;;;;;1028624;28;4089;-57
2022/09/23 02:20:51;;;;;;;;;;;;;;;;;;1028563;28;2660;-56
2022/09/23 02:21:24;;;;;;;;;;;;;;;;;;1028153;28;4146;-56
2022/09/23 02:21:59;;;;;;;;;;;;;;;;;;1030094;28;3045;-58
2022/09/23 02:22:35;;;;;;;;;;;;;;;;;;1028660;28;4068;-58
2022/09/23 02:23:10;;;;;;;;;;;;;;;;;;1028794;28;2426;-57
2022/09/23 02:24:07;;;;;;;;;;;;;;;;;;1029394;28;4016;-58
2022/09/23 02:24:38;;;;;;;;;;;;;;;;;;1012956;29;3816;-56
2022/09/23 02:25:11;;;;;;;;;;;;;;;;;;1016072;28;3088;-58
2022/09/23 02:25:48;;;;;;;;;;;;;;;;;;1028106;28;3715;-57
2022/09/23 02:26:26;;;;;;;;;;;;;;;;;;1028671;28;4107;-58
2022/09/23 02:27:09;;;;;;;;;;;;;;;;;;1024548;28;2358;-56
2022/09/23 02:27:42;;;;;;;;;;;;;;;;;;1025243;28;3855;-57
2022/09/23 02:28:27;;;;;;;;;;;;;;;;;;1024472;28;4164;-57
2022/09/23 02:29:06;;;;;;;;;;;;;;;;;;1029308;28;2833;-57
2022/09/23 02:29:43;;;;;;;;;;;;;;;;;;1028636;28;4041;-57
2022/09/23 02:30:15;;;;;;;;;;;;;;;;;;1027073;28;4073;-57
2022/09/23 02:30:53;;;;;;;;;;;;;;;;;;1029319;28;1475;-56
2022/09/23 02:31:23;;;;;;;;;;;;;;;;;;1028307;28;4120;-58
2022/09/23 02:31:56;;;;;;;;;;;;;;;;;;1028685;28;3387;-56
2022/09/23 02:32:33;;;;;;;;;;;;;;;;;;1028614;28;4067;-56
2022/09/23 02:33:05;;;;;;;;;;;;;;;;;;1025614;28;2635;-57
2022/09/23 02:33:40;;;;;;;;;;;;;;;;;;1025866;28;4085;-56
2022/09/23 02:34:20;;;;;;;;;;;;;;;;;;1026943;28;1986;-55
2022/09/23 02:34:59;;;;;;;;;;;;;;;;;;1026486;28;3845;-54
2022/09/23 02:35:40;;;;;;;;;;;;;;;;;;1029089;28;4075;-57
2022/09/23 02:36:31;;;;;;;;;;;;;;;;;;1028206;28;1689;-56
2022/09/23 02:37:10;;;;;;;;;;;;;;;;;;1028715;28;3882;-57
2022/09/23 02:37:47;;;;;;;;;;;;;;;;;;1028035;28;3888;-57
2022/09/23 02:38:30;;;;;;;;;;;;;;;;;;1024519;28;3937;-55
2022/09/23 02:39:02;;;;;;;;;;;;;;;;;;1026641;28;2308;-58
2022/09/23 02:39:38;;;;;;;;;;;;;;;;;;1028014;28;4149;-58
2022/09/23 02:40:12;;;;;;;;;;;;;;;;;;1028678;28;3183;-58
2022/09/23 02:40:54;;;;;;;;;;;;;;;;;;1028192;28;4013;-55
2022/09/23 02:41:28;;;;;;;;;;;;;;;;;;1028346;28;4052;-54
2022/09/23 02:42:26;;;;;;;;;;;;;;;;;;1024225;28;3196;-58
2022/09/23 02:43:03;;;;;;;;;;;;;;;;;;1024946;28;4004;-54
2022/09/23 02:43:37;;;;;;;;;;;;;;;;;;1024512;28;3943;-57
2022/09/23 02:44:09;;;;;;;;;;;;;;;;;;1027860;28;3277;-57
2022/09/23 02:44:40;;;;;;;;;;;;;;;;;;1027236;28;3976;-58
2022/09/23 02:45:10;;;;;;;;;;;;;;;;;;1027915;28;3064;-54
2022/09/23 02:45:40;;;;;;;;;;;;;;;;;;1024449;28;3838;-56
2022/09/23 02:46:11;;;;;;;;;;;;;;;;;;1023970;28;3936;-57
2022/09/23 02:46:44;;;;;;;;;;;;;;;;;;1023806;28;3056;-57
2022/09/23 02:47:16;;;;;;;;;;;;;;;;;;1024204;28;3842;-57
2022/09/23 02:47:48;;;;;;;;;;;;;;;;;;1029089;28;3334;-57
2022/09/23 02:48:21;;;;;;;;;;;;;;;;;;1027315;28;4360;-58
2022/09/23 02:48:59;;;;;;;;;;;;;;;;;;1028674;28;3239;-56
2022/09/23 02:49:42;;;;;;;;;;;;;;;;;;1029705;28;3917;-57
2022/09/23 02:50:21;;;;;;;;;;;;;;;;;;1023905;28;4114;-58
2022/09/23 02:50:51;;;;;;;;;;;;;;;;;;1025469;28;3143;-57
2022/09/23 02:51:27;;;;;;;;;;;;;;;;;;1028777;28;4103;-57
2022/09/23 02:51:59;;;;;;;;;;;;;;;;;;1029978;28;2611;-58
2022/09/23 02:52:31;;;;;;;;;;;;;;;;;;1032020;28;4064;-55
2022/09/23 02:53:01;;;;;;;;;;;;;;;;;;1033087;28;3064;-58
2022/09/23 02:53:35;;;;;;;;;;;;;;;;;;1032252;28;4403;-58
2022/09/23 02:54:09;;;;;;;;;;;;;;;;;;1030998;28;2052;-56
2022/09/23 02:54:39;;;;;;;;;;;;;;;;;;1031565;28;3880;-58
2022/09/23 02:55:10;;;;;;;;;;;;;;;;;;1032177;28;2839;-57
2022/09/23 02:55:41;;;;;;;;;;;;;;;;;;1033114;28;3742;-58
2022/09/23 02:56:16;;;;;;;;;;;;;;;;;;1033032;28;4138;-58
2022/09/23 02:56:49;;;;;;;;;;;;;;;;;;1033390;28;2493;-57
2022/09/23 02:57:19;;;;;;;;;;;;;;;;;;1032558;28;4076;-57
2022/09/23 02:57:52;;;;;;;;;;;;;;;;;;1032682;28;3174;-55
2022/09/23 02:58:23;;;;;;;;;;;;;;;;;;1032455;28;4188;-54
2022/09/23 02:58:53;;;;;;;;;;;;;;;;;;1032986;28;2252;-58
2022/09/23 02:59:24;;;;;;;;;;;;;;;;;;1030910;28;4070;-53
2022/09/23 02:59:54;;;;;;;;;;;;;;;;;;1030679;28;2875;-57
2022/09/23 03:00:26;;;;;;;;;;;;;;;;;;1028527;28;4062;-58
2022/09/23 03:01:17;;;;;;;;;;;;;;;;;;1030829;28;2208;-55
2022/09/23 03:02:00;;;;;;;;;;;;;;;;;;1031810;28;3838;-58
2022/09/23 03:02:30;;;;;;;;;;;;;;;;;;1032128;28;4080;-54
2022/09/23 03:03:10;;;;;;;;;;;;;;;;;;1032259;28;2916;-57
2022/09/23 03:04:05;;;;;;;;;;;;;;;;;;1033347;28;4016;-55
2022/09/23 03:05:00;;;;;;;;;;;;;;;;;;1032431;28;4078;-56
2022/09/23 03:05:33;;;;;;;;;;;;;;;;;;1028687;28;3906;-54
2022/09/23 03:06:08;;;;;;;;;;;;;;;;;;1031637;28;2866;-58
2022/09/23 03:06:42;;;;;;;;;;;;;;;;;;1031845;28;4025;-58
2022/09/23 03:07:16;;;;;;;;;;;;;;;;;;1031503;28;4174;-58
2022/09/23 03:08:05;;;;;;;;;;;;;;;;;;1034309;28;3651;-56
2022/09/23 03:08:47;;;;;;;;;;;;;;;;;;1032769;28;4058;-58
2022/09/23 03:09:23;;;;;;;;;;;;;;;;;;1030201;28;3980;-57
2022/09/23 03:10:12;;;;;;;;;;;;;;;;;;1033276;28;2828;-58
2022/09/23 03:10:53;;;;;;;;;;;;;;;;;;1031734;28;3792;-56
2022/09/23 03:11:23;;;;;;;;;;;;;;;;;;1033022;28;4103;-58
2022/09/23 03:12:01;;;;;;;;;;;;;;;;;;1034174;28;1699;-58
2022/09/23 03:12:41;;;;;;;;;;;;;;;;;;1032724;28;4083;-55
2022/09/23 03:13:30;;;;;;;;;;;;;;;;;;1033370;28;4130;-58
2022/09/23 03:14:05;;;;;;;;;;;;;;;;;;1032593;28;3093;-59
2022/09/23 03:14:48;;;;;;;;;;;;;;;;;;1032934;28;4058;-57
2022/09/23 03:15:25;;;;;;;;;;;;;;;;;;1034079;28;4111;-53
2022/09/23 03:16:02;;;;;;;;;;;;;;;;;;1034898;28;1672;-56
2022/09/23 03:16:51;;;;;;;;;;;;;;;;;;1033915;28;4095;-57
2022/09/23 03:17:28;;;;;;;;;;;;;;;;;;1034586;28;4277;-56
2022/09/23 03:18:12;;;;;;;;;;;;;;;;;;1034824;28;2470;-58
2022/09/23 03:18:42;;;;;;;;;;;;;;;;;;1033542;28;4229;-55
2022/09/23 03:19:22;;;;;;;;;;;;;;;;;;1034047;28;4121;-58
2022/09/23 03:19:55;;;;;;;;;;;;;;;;;;1033897;28;2298;-56
2022/09/23 03:20:34;;;;;;;;;;;;;;;;;;1033706;28;3881;-55
2022/09/23 03:21:07;;;;;;;;;;;;;;;;;;1034729;28;1695;-58
2022/09/23 03:21:44;;;;;;;;;;;;;;;;;;1034057;28;4051;-57
2022/09/23 03:22:19;;;;;;;;;;;;;;;;;;1032987;28;3955;-56
2022/09/23 03:22:52;;;;;;;;;;;;;;;;;;1034434;28;2200;-58
2022/09/23 03:23:30;;;;;;;;;;;;;;;;;;1034140;28;4132;-55
2022/09/23 03:24:03;;;;;;;;;;;;;;;;;;1034293;28;3156;-57
2022/09/23 03:24:34;;;;;;;;;;;;;;;;;;1033780;28;3928;-57
2022/09/23 03:25:07;;;;;;;;;;;;;;;;;;1034177;28;1840;-58
2022/09/23 03:25:38;;;;;;;;;;;;;;;;;;1033054;28;4037;-57
2022/09/23 03:26:11;;;;;;;;;;;;;;;;;;1034302;28;3149;-58
2022/09/23 03:26:43;;;;;;;;;;;;;;;;;;1028849;28;5842;-57
2022/09/23 03:27:20;;;;;;;;;;;;;;;;;;1029935;28;3930;-58
2022/09/23 03:27:55;;;;;;;;;;;;;;;;;;1029575;28;1729;-55
2022/09/23 03:28:26;;;;;;;;;;;;;;;;;;1031163;28;4068;-55
2022/09/23 03:28:57;;;;;;;;;;;;;;;;;;1034810;28;3057;-58
2022/09/23 03:29:35;;;;;;;;;;;;;;;;;;1034161;28;3997;-58
2022/09/23 03:30:06;;;;;;;;;;;;;;;;;;1028868;28;3328;-57
2022/09/23 03:30:37;;;;;;;;;;;;;;;;;;1029528;28;3891;-57
2022/09/23 03:31:08;;;;;;;;;;;;;;;;;;1029466;28;1621;-52
2022/09/23 03:31:41;;;;;;;;;;;;;;;;;;1029637;28;3969;-57
2022/09/23 03:32:13;;;;;;;;;;;;;;;;;;1033899;28;3965;-56
2022/09/23 03:32:45;;;;;;;;;;;;;;;;;;1034702;28;2260;-58
2022/09/23 03:33:16;;;;;;;;;;;;;;;;;;1034403;28;4022;-55
2022/09/23 03:33:49;;;;;;;;;;;;;;;;;;1034761;28;1921;-58
2022/09/23 03:34:21;;;;;;;;;;;;;;;;;;1033104;28;4111;-58
2022/09/23 03:34:53;;;;;;;;;;;;;;;;;;1033658;28;2357;-58
2022/09/23 03:35:26;;;;;;;;;;;;;;;;;;1033731;28;4268;-56
2022/09/23 03:36:54;;;;;;;;;;;;;;;;;;1033746;28;3868;-55
2022/09/23 03:37:25;;;;;;;;;;;;;;;;;;1033958;28;3884;-53
2022/09/23 03:37:59;;;;;;;;;;;;;;;;;;1034357;28;3260;-57
2022/09/23 03:38:33;;;;;;;;;;;;;;;;;;1033953;28;3999;-56
2022/09/23 03:39:05;;;;;;;;;;;;;;;;;;1034270;28;3106;-56
2022/09/23 03:39:43;;;;;;;;;;;;;;;;;;1033912;28;4234;-56
2022/09/23 03:40:19;;;;;;;;;;;;;;;;;;1033009;28;4145;-54
2022/09/23 03:40:52;;;;;;;;;;;;;;;;;;1029066;28;3106;-57
2022/09/23 03:41:27;;;;;;;;;;;;;;;;;;1029769;28;4168;-57
2022/09/23 03:42:00;;;;;;;;;;;;;;;;;;1030582;28;1663;-54
2022/09/23 03:42:31;;;;;;;;;;;;;;;;;;1030817;28;3914;-56
2022/09/23 03:43:03;;;;;;;;;;;;;;;;;;1034024;28;1717;-57
2022/09/23 03:43:33;;;;;;;;;;;;;;;;;;1033833;28;3851;-54
2022/09/23 03:44:06;;;;;;;;;;;;;;;;;;1033423;28;1709;-56
2022/09/23 03:44:38;;;;;;;;;;;;;;;;;;1033125;28;5433;-57
2022/09/23 03:45:11;;;;;;;;;;;;;;;;;;1030305;28;3165;-55
2022/09/23 03:45:42;;;;;;;;;;;;;;;;;;1030626;28;3958;-57
2022/09/23 03:46:14;;;;;;;;;;;;;;;;;;1033742;28;4065;-56
2022/09/23 03:46:48;;;;;;;;;;;;;;;;;;1033720;28;3031;-56
2022/09/23 03:47:19;;;;;;;;;;;;;;;;;;1033517;28;4171;-56
2022/09/23 03:47:49;;;;;;;;;;;;;;;;;;1033321;28;3034;-56
2022/09/23 03:48:21;;;;;;;;;;;;;;;;;;1033353;28;4040;-57
2022/09/23 03:48:51;;;;;;;;;;;;;;;;;;1033987;28;3082;-55
2022/09/23 03:49:26;;;;;;;;;;;;;;;;;;1034082;28;4130;-57
2022/09/23 03:50:12;;;;;;;;;;;;;;;;;;1033898;28;1867;-54
2022/09/23 03:50:43;;;;;;;;;;;;;;;;;;1033445;28;3954;-57
2022/09/23 03:51:19;;;;;;;;;;;;;;;;;;1033858;28;4160;-58
2022/09/23 03:51:50;;;;;;;;;;;;;;;;;;1034358;28;1367;-58
2022/09/23 03:52:21;;;;;;;;;;;;;;;;;;1027700;28;3994;-55
2022/09/23 03:52:51;;;;;;;;;;;;;;;;;;1029157;28;2842;-57
2022/09/23 03:53:22;;;;;;;;;;;;;;;;;;1028670;28;3957;-57
2022/09/23 03:53:52;;;;;;;;;;;;;;;;;;1030194;28;1635;-57
2022/09/23 03:54:22;;;;;;;;;;;;;;;;;;1032893;28;4143;-56
2022/09/23 03:54:53;;;;;;;;;;;;;;;;;;1033898;28;3148;-57
2022/09/23 03:55:24;;;;;;;;;;;;;;;;;;1032853;28;4091;-56
2022/09/23 03:55:54;;;;;;;;;;;;;;;;;;1033699;28;2898;-56
2022/09/23 03:56:24;;;;;;;;;;;;;;;;;;1033220;28;4283;-58
2022/09/23 03:56:58;;;;;;;;;;;;;;;;;;1033289;28;2345;-57
2022/09/23 03:57:28;;;;;;;;;;;;;;;;;;1032777;28;4120;-55
2022/09/23 03:57:59;;;;;;;;;;;;;;;;;;1032512;28;3206;-57
2022/09/23 03:58:29;;;;;;;;;;;;;;;;;;1033217;28;4117;-58
2022/09/23 03:59:00;;;;;;;;;;;;;;;;;;1034377;28;1701;-57
2022/09/23 03:59:30;;;;;;;;;;;;;;;;;;1033220;28;3984;-58
2022/09/23 04:00:01;;;;;;;;;;;;;;;;;;1033826;28;3102;-57
2022/09/23 04:00:31;;;;;;;;;;;;;;;;;;1032475;28;3882;-56
2022/09/23 04:01:02;;;;;;;;;;;;;;;;;;1034323;28;1409;-58
2022/09/23 04:01:33;;;;;;;;;;;;;;;;;;1032869;28;3840;-58
2022/09/23 04:02:06;;;;;;;;;;;;;;;;;;1032578;28;3142;-54
2022/09/23 04:02:36;;;;;;;;;;;;;;;;;;1033562;28;3840;-56
2022/09/23 04:03:06;;;;;;;;;;;;;;;;;;1034090;28;1690;-57
2022/09/23 04:03:36;;;;;;;;;;;;;;;;;;1033733;28;4085;-57
2022/09/23 04:04:07;;;;;;;;;;;;;;;;;;1033352;28;2894;-56